Time;durP1;ratioP1;P1;durP2;ratioP2;P2;SDS_P1;SDS_P2;PMS_P1;PMS_P2;Temp;Humidity;BMP_temperature;BMP_pressure;BME280_temperature;BME280_humidity;BME280_pressure;Samples;Min_cycle;Max_cycle;Signal;HPM_P1;HPM_P2
2022/04/27 00:00:15;;;;;;;27.60;11.90;;;;;;;2.51;78.67;100377.64;105277;1273;61552;-72
2022/04/27 00:03:05;;;;;;;24.60;11.50;;;;;;;2.50;79.05;100373.67;105195;1273;73790;-69
2022/04/27 00:05:53;;;;;;;26.10;11.50;;;;;;;2.49;79.17;100381.39;104824;1273;68065;-69
2022/04/27 00:08:41;;;;;;;22.00;11.20;;;;;;;2.51;79.34;100382.38;104971;1273;74431;-69
2022/04/27 00:11:29;;;;;;;24.80;12.30;;;;;;;2.53;79.75;100382.12;104923;1273;59654;-71
2022/04/27 00:14:21;;;;;;;23.80;11.90;;;;;;;2.55;79.68;100382.41;104754;1274;59654;-69
2022/04/27 00:17:09;;;;;;;28.10;13.70;;;;;;;2.56;79.77;100386.90;104837;1273;73757;-69
2022/04/27 00:19:57;;;;;;;31.00;15.40;;;;;;;2.55;79.52;100392.69;104779;1274;69628;-70
2022/04/27 00:22:45;;;;;;;30.90;15.50;;;;;;;2.54;79.23;100400.80;104879;1273;73058;-70
2022/04/27 00:25:33;;;;;;;27.90;14.20;;;;;;;2.51;79.18;100405.48;105048;1273;59893;-70
2022/04/27 00:28:24;;;;;;;25.50;12.40;;;;;;;2.47;78.90;100414.20;105080;1273;60420;-69
2022/04/27 00:31:12;;;;;;;25.80;12.80;;;;;;;2.41;79.03;100416.01;104897;1273;72551;-69
2022/04/27 00:34:01;;;;;;;23.00;11.80;;;;;;;2.34;79.31;100422.05;105107;1273;69003;-70
2022/04/27 00:36:49;;;;;;;25.00;11.90;;;;;;;2.30;79.87;100430.43;105073;1273;72900;-69
2022/04/27 00:39:37;;;;;;;25.20;13.10;;;;;;;2.26;80.02;100435.34;104788;1273;59662;-69
2022/04/27 00:42:25;;;;;;;27.80;12.30;;;;;;;2.21;79.87;100435.33;104801;1274;60604;-70
2022/04/27 00:45:13;;;;;;;25.00;12.30;;;;;;;2.17;80.04;100437.42;104921;1273;73327;-70
2022/04/27 00:48:01;;;;;;;26.80;11.20;;;;;;;2.16;80.18;100443.59;104868;1273;68067;-70
2022/04/27 00:50:50;;;;;;;23.70;10.50;;;;;;;2.14;80.35;100443.50;104894;1273;74200;-71
2022/04/27 00:53:40;;;;;;;24.50;12.00;;;;;;;2.16;80.80;100441.67;105102;1273;59727;-69
2022/04/27 00:56:28;;;;;;;26.50;11.40;;;;;;;2.18;81.31;100441.23;105058;1274;60395;-69
2022/04/27 00:59:17;;;;;;;26.90;11.10;;;;;;;2.24;81.53;100444.86;105396;1273;74750;-71
2022/04/27 01:02:06;;;;;;;25.10;11.70;;;;;;;2.31;81.80;100444.05;105395;1273;67238;-68
2022/04/27 01:04:56;;;;;;;23.70;11.40;;;;;;;2.39;82.22;100446.92;104937;1273;73559;-73
2022/04/27 01:07:45;;;;;;;25.90;11.80;;;;;;;2.49;82.24;100447.95;105049;1273;59806;-71
2022/04/27 01:10:33;;;;;;;24.70;11.30;;;;;;;2.59;82.37;100447.77;105185;1273;62198;-70
2022/04/27 01:13:21;;;;;;;26.30;12.00;;;;;;;2.67;82.24;100449.87;104858;1273;71688;-70
2022/04/27 01:16:12;;;;;;;27.20;12.20;;;;;;;2.76;81.75;100441.98;105017;1274;67026;-71
2022/04/27 01:19:01;;;;;;;29.80;12.60;;;;;;;2.86;81.80;100442.16;104909;1273;72216;-70
2022/04/27 01:21:55;;;;;;;28.10;13.20;;;;;;;2.96;81.55;100447.52;104892;1274;59674;-72
2022/04/27 01:24:44;;;;;;;27.40;12.60;;;;;;;3.06;81.94;100442.23;104972;1273;60847;-70
2022/04/27 01:27:32;;;;;;;25.30;12.40;;;;;;;3.17;81.90;100442.13;104835;1273;72749;-69
2022/04/27 01:30:20;;;;;;;26.70;11.80;;;;;;;3.24;82.11;100442.01;104850;1274;69599;-66
2022/04/27 01:33:08;;;;;;;23.60;11.90;;;;;;;3.32;82.44;100439.75;104899;1273;72107;-68
2022/04/27 01:35:58;;;;;;;26.80;12.70;;;;;;;3.39;82.86;100445.79;105191;1273;59646;-71
2022/04/27 01:38:46;;;;;;;23.20;12.40;;;;;;;3.41;83.09;100447.79;104874;1273;59561;-71
2022/04/27 01:41:36;;;;;;;22.20;11.40;;;;;;;3.44;83.93;100456.14;105025;1273;73715;-65
2022/04/27 01:44:23;;;;;;;22.00;12.70;;;;;;;3.47;85.02;100453.38;104685;1273;68604;-71
2022/04/27 01:47:11;;;;;;;28.00;15.10;;;;;;;3.50;85.50;100458.84;104939;1273;73386;-70
2022/04/27 01:49:59;;;;;;;26.30;14.80;;;;;;;3.52;85.55;100460.51;104896;1273;60499;-69
2022/04/27 01:55:54;;;;;;;24.90;13.10;;;;;;;3.57;86.13;100462.92;104829;1273;72532;-68
2022/04/27 01:58:44;;;;;;;25.60;13.80;;;;;;;3.62;86.80;100467.27;104746;1273;67032;-70
2022/04/27 02:01:32;;;;;;;24.90;12.80;;;;;;;3.67;87.19;100469.52;104901;1273;73125;-66
2022/04/27 02:04:20;;;;;;;25.30;13.90;;;;;;;3.73;87.72;100469.25;104791;1273;59698;-64
2022/04/27 02:07:09;;;;;;;25.70;13.90;;;;;;;3.80;87.53;100470.92;104795;1273;60425;-67
2022/04/27 02:09:57;;;;;;;21.60;12.30;;;;;;;3.84;87.79;100468.11;104814;1273;71708;-68
2022/04/27 02:12:45;;;;;;;22.70;12.60;;;;;;;3.86;87.91;100471.17;104786;1273;66770;-67
2022/04/27 02:15:37;;;;;;;21.60;12.40;;;;;;;3.85;88.49;100471.21;104916;1274;72886;-68
2022/04/27 02:18:36;;;;;;;26.30;13.80;;;;;;;3.82;88.78;100473.80;104773;1273;59640;-69
2022/04/27 02:21:25;;;;;;;33.20;15.80;;;;;;;3.79;89.51;100471.64;104909;1273;59641;-72
2022/04/27 02:24:13;;;;;;;33.20;16.00;;;;;;;3.75;89.48;100470.04;104884;1273;73956;-70
2022/04/27 02:27:02;;;;;;;34.80;15.70;;;;;;;3.73;89.99;100474.90;105030;1273;69443;-71
2022/04/27 02:29:51;;;;;;;31.00;14.70;;;;;;;3.71;90.42;100475.83;104851;1273;73329;-70
2022/04/27 02:32:45;;;;;;;31.00;14.30;;;;;;;3.71;90.73;100479.52;104703;1273;60038;-70
2022/04/27 02:35:33;;;;;;;30.60;14.30;;;;;;;3.70;90.95;100479.92;104771;1273;62083;-71
2022/04/27 02:38:21;;;;;;;27.10;12.50;;;;;;;3.68;91.09;100483.00;104802;1273;73215;-71
2022/04/27 02:41:09;;;;;;;23.30;10.90;;;;;;;3.67;91.62;100480.05;104742;1273;68601;-69
2022/04/27 02:43:58;;;;;;;25.50;11.40;;;;;;;3.65;91.38;100483.83;104832;1273;74398;-68
2022/04/27 02:46:46;;;;;;;25.30;11.70;;;;;;;3.60;91.42;100483.86;104740;1273;59727;-69
2022/04/27 02:52:41;;;;;;;24.00;10.80;;;;;;;3.56;92.26;100484.92;104785;1273;73948;-70
2022/04/27 02:55:37;;;;;;;26.30;12.00;;;;;;;3.53;92.64;100485.73;104912;1273;68348;-69
2022/04/27 02:58:25;;;;;;;27.00;12.00;;;;;;;3.49;92.57;100485.92;104864;1273;74142;-72
2022/04/27 03:01:14;;;;;;;29.90;13.50;;;;;;;3.48;93.12;100486.47;104940;1273;59759;-73
2022/04/27 03:04:01;;;;;;;29.30;12.90;;;;;;;3.52;93.79;100489.11;104847;1273;59633;-72
2022/04/27 03:06:49;;;;;;;23.70;11.60;;;;;;;3.53;93.48;100490.64;104894;1273;74087;-72
2022/04/27 03:09:37;;;;;;;27.90;11.60;;;;;;;3.54;93.52;100495.52;104850;1273;69603;-70
2022/04/27 03:12:25;;;;;;;25.00;11.30;;;;;;;3.54;93.71;100501.12;104797;1273;73801;-71
2022/04/27 03:15:14;;;;;;;26.60;10.90;;;;;;;3.52;93.13;100506.67;104878;1273;60305;-71
2022/04/27 03:18:19;;;;;;;26.10;11.00;;;;;;;3.48;93.74;100517.88;104643;1274;62167;-73
2022/04/27 03:21:11;;;;;;;29.30;12.60;;;;;;;3.48;94.01;100519.48;104945;1274;73159;-75
2022/04/27 03:23:59;;;;;;;24.70;9.90;;;;;;;3.47;94.62;100531.42;104847;1274;69595;-72
2022/04/27 03:26:48;;;;;;;27.40;10.50;;;;;;;3.45;94.59;100533.98;104746;1274;74677;-72
2022/04/27 03:29:38;;;;;;;21.00;10.00;;;;;;;3.45;95.10;100536.27;104828;1274;59647;-72
2022/04/27 03:32:26;;;;;;;28.00;12.10;;;;;;;3.41;95.23;100538.85;104879;1273;59660;-71
2022/04/27 03:35:16;;;;;;;28.80;13.00;;;;;;;3.40;95.94;100540.44;105080;1273;74721;-67
2022/04/27 03:38:04;;;;;;;29.60;13.20;;;;;;;3.42;95.76;100542.49;104883;1274;69693;-71
2022/04/27 03:40:52;;;;;;;30.00;14.10;;;;;;;3.46;95.55;100543.40;104695;1273;71748;-70
2022/04/27 03:43:40;;;;;;;29.40;13.50;;;;;;;3.51;95.87;100545.29;104700;1274;60385;-75
2022/04/27 03:46:28;;;;;;;27.30;11.80;;;;;;;3.52;95.96;100549.98;104877;1273;60779;-71
2022/04/27 03:49:36;;;;;;;25.00;12.30;;;;;;;3.53;96.14;100555.39;104797;1274;74797;-73
2022/04/27 03:52:25;;;;;;;23.60;11.70;;;;;;;3.57;96.08;100559.60;104800;1273;68524;-70
2022/04/27 03:55:14;;;;;;;18.90;9.60;;;;;;;3.60;96.19;100561.95;105084;1273;73096;-71
2022/04/27 03:58:06;;;;;;;25.50;12.50;;;;;;;3.61;96.00;100567.36;105466;1273;59653;-72
2022/04/27 04:00:54;;;;;;;22.20;11.40;;;;;;;3.63;95.79;100570.06;105066;1273;59581;-70
2022/04/27 04:03:42;;;;;;;19.90;9.90;;;;;;;3.65;95.82;100572.27;106020;1273;73162;-69
2022/04/27 04:06:33;;;;;;;14.90;7.50;;;;;;;3.67;95.57;100579.56;106522;1273;69174;-72
2022/04/27 04:09:24;;;;;;;16.20;8.30;;;;;;;3.69;95.37;100578.25;106017;1274;73420;-71
2022/04/27 04:12:16;;;;;;;17.90;8.60;;;;;;;3.75;95.18;100579.60;105121;1278;60324;-70
2022/04/27 04:15:23;;;;;;;15.10;7.80;;;;;;;3.85;95.37;100582.52;104785;1278;60675;-71
2022/04/27 04:18:31;;;;;;;15.50;8.70;;;;;;;3.93;94.72;100587.61;104636;1276;73849;-72
2022/04/27 04:21:29;;;;;;;13.40;7.60;;;;;;;4.00;94.70;100581.71;104494;1276;67503;-68
2022/04/27 04:24:23;;;;;;;14.40;7.80;;;;;;;4.11;94.34;100585.50;104618;1276;73752;-73
2022/04/27 04:30:22;;;;;;;13.80;7.50;;;;;;;4.30;93.93;100582.36;104557;1279;60488;-71
2022/04/27 04:33:21;;;;;;;15.80;8.00;;;;;;;4.44;93.85;100583.89;104510;1279;74305;-71
2022/04/27 04:36:13;;;;;;;14.60;7.30;;;;;;;4.58;93.54;100591.71;104437;1279;68527;-70
2022/04/27 04:39:02;;;;;;;12.40;7.20;;;;;;;4.75;93.18;100595.48;104346;1279;72372;-69
2022/04/27 04:41:53;;;;;;;12.90;6.30;;;;;;;4.93;92.36;100598.23;104396;1278;59800;-70
2022/04/27 04:44:41;;;;;;;12.50;5.50;;;;;;;5.15;92.06;100597.55;104710;1273;60513;-71
2022/04/27 04:47:34;;;;;;;13.20;5.40;;;;;;;5.35;90.98;100606.14;104784;1274;73379;-71
2022/04/27 04:50:41;;;;;;;11.40;5.80;;;;;;;5.52;90.69;100609.35;104923;1273;66551;-70
2022/04/27 04:53:40;;;;;;;11.70;4.90;;;;;;;5.72;90.15;100606.99;104636;1274;71981;-72
2022/04/27 04:56:44;;;;;;;11.40;5.70;;;;;;;5.87;89.29;100604.71;105097;1273;59698;-65
2022/04/27 04:59:51;;;;;;;11.20;6.00;;;;;;;6.00;88.33;100610.39;104747;1273;60345;-64
2022/04/27 05:02:58;;;;;;;11.20;5.50;;;;;;;6.16;87.94;100616.16;105108;1273;72889;-68
2022/04/27 05:06:11;;;;;;;10.30;5.10;;;;;;;6.33;87.17;100622.19;104928;1273;65759;-67
2022/04/27 05:09:23;;;;;;;10.00;4.90;;;;;;;6.39;86.57;100626.22;105150;1273;74071;-67
2022/04/27 05:12:39;;;;;;;16.00;8.90;;;;;;;6.47;86.39;100630.08;104894;1275;59681;-69
2022/04/27 05:15:37;;;;;;;10.80;5.40;;;;;;;6.75;86.20;100631.11;104952;1273;62183;-70
2022/04/27 05:18:57;;;;;;;12.40;5.10;;;;;;;6.99;84.26;100636.55;105139;1273;73707;-68
2022/04/27 05:21:57;;;;;;;9.80;4.40;;;;;;;7.15;83.18;100641.50;104866;1273;67073;-68
2022/04/27 05:25:12;;;;;;;8.40;3.70;;;;;;;7.38;82.03;100643.41;105029;1273;73108;-69
2022/04/27 05:28:13;;;;;;;11.20;3.90;;;;;;;7.67;81.60;100643.95;104651;1273;59755;-70
2022/04/27 05:34:44;;;;;;;10.10;4.50;;;;;;;9.42;75.63;100641.13;105065;1273;71828;-71
2022/04/27 05:37:52;;;;;;;12.20;5.10;;;;;;;10.46;70.76;100639.16;105131;1273;66821;-70
2022/04/27 05:40:59;;;;;;;10.40;4.00;;;;;;;11.16;66.87;100646.00;104970;1273;71669;-71
2022/04/27 05:44:09;;;;;;;13.50;3.20;;;;;;;11.35;63.98;100648.23;104973;1273;59734;-73
2022/04/27 05:47:16;;;;;;;7.70;3.10;;;;;;;11.62;64.07;100655.19;104935;1273;60491;-73
2022/04/27 05:50:27;;;;;;;8.20;3.10;;;;;;;13.00;60.07;100647.16;105209;1273;73177;-72
2022/04/27 05:53:47;;;;;;;9.20;2.50;;;;;;;13.84;55.89;100644.38;104728;1273;69187;-71
2022/04/27 05:56:56;;;;;;;7.30;2.00;;;;;;;14.35;52.03;100646.78;105124;1273;73295;-73
2022/04/27 06:00:11;;;;;;;6.40;1.80;;;;;;;13.73;51.77;100654.89;104791;1273;59762;-73
2022/04/27 06:03:09;;;;;;;6.20;1.70;;;;;;;12.72;54.25;100659.42;104943;1272;61014;-71
2022/04/27 06:05:59;;;;;;;5.50;1.60;;;;;;;12.21;55.54;100669.05;104896;1274;73251;-71
2022/04/27 06:08:51;;;;;;;6.80;1.50;;;;;;;12.70;55.70;100666.38;105009;1273;67084;-73
2022/04/27 06:11:46;;;;;;;7.00;1.40;;;;;;;13.11;54.02;100666.63;104956;1273;72250;-73
2022/04/27 06:14:55;;;;;;;6.20;1.40;;;;;;;13.41;52.22;100664.45;104872;1275;59597;-72
2022/04/27 06:17:51;;;;;;;6.80;1.60;;;;;;;13.89;51.83;100673.38;104775;1273;61995;-73
2022/04/27 06:20:39;;;;;;;6.50;1.20;;;;;;;13.70;51.25;100676.95;104652;1276;74893;-72
2022/04/27 06:23:27;;;;;;;5.40;1.30;;;;;;;13.19;50.90;100678.63;104593;1276;68702;-75
2022/04/27 06:26:18;;;;;;;6.00;1.30;;;;;;;12.62;51.99;100687.09;104861;1274;73333;-73
2022/04/27 06:29:07;;;;;;;6.50;1.30;;;;;;;12.18;53.01;100691.70;105089;1274;59668;-72
2022/04/27 06:31:56;;;;;;;5.90;1.70;;;;;;;11.66;54.51;100703.04;104846;1275;62096;-74
2022/04/27 06:34:44;;;;;;;6.20;1.20;;;;;;;11.16;55.77;100696.86;104754;1275;72126;-72
2022/04/27 06:37:31;;;;;;;6.60;1.30;;;;;;;11.18;56.46;100700.97;104771;1275;67864;-73
2022/04/27 06:40:22;;;;;;;6.00;1.30;;;;;;;11.31;56.41;100709.85;104709;1274;73761;-73
2022/04/27 06:43:11;;;;;;;7.90;1.60;;;;;;;11.69;56.31;100717.29;104615;1274;59699;-72
2022/04/27 06:46:07;;;;;;;7.20;1.40;;;;;;;12.14;55.14;100717.38;104838;1274;60980;-76
2022/04/27 06:49:27;;;;;;;5.50;1.30;;;;;;;12.38;54.12;100722.20;104605;1276;72725;-74
2022/04/27 06:52:47;;;;;;;6.10;1.30;;;;;;;12.59;53.68;100720.42;104849;1274;66956;-72
2022/04/27 06:55:56;;;;;;;5.60;1.10;;;;;;;13.07;50.97;100724.28;104018;1274;1003025;-73
2022/04/27 06:58:44;;;;;;;6.70;1.50;;;;;;;13.15;50.14;100724.36;104780;1273;60003;-75
2022/04/27 07:01:48;;;;;;;7.40;1.50;;;;;;;12.97;50.07;100728.25;104797;1274;60628;-74
2022/04/27 07:04:37;;;;;;;5.00;1.10;;;;;;;13.11;49.35;100726.48;104687;1273;73834;-75
2022/04/27 07:07:27;;;;;;;6.80;1.40;;;;;;;13.15;48.79;100729.70;104747;1274;68010;-71
2022/04/27 07:10:17;;;;;;;5.60;1.10;;;;;;;12.86;48.84;100732.15;104757;1273;74472;-74
2022/04/27 07:13:05;;;;;;;5.50;1.50;;;;;;;12.63;49.25;100742.75;104744;1273;59824;-74
2022/04/27 07:15:59;;;;;;;6.60;1.60;;;;;;;12.37;49.80;100746.69;104800;1273;61757;-73
2022/04/27 07:18:50;;;;;;;5.80;1.20;;;;;;;12.21;50.17;100744.81;104987;1273;73896;-73
2022/04/27 07:21:39;;;;;;;7.90;1.60;;;;;;;12.10;49.62;100742.27;104527;1273;68730;-73
2022/04/27 07:24:27;;;;;;;6.30;1.40;;;;;;;12.17;49.20;100744.61;104846;1273;72368;-73
2022/04/27 07:27:16;;;;;;;8.80;1.60;;;;;;;12.27;48.09;100746.87;104822;1273;59901;-73
2022/04/27 07:30:04;;;;;;;5.90;1.50;;;;;;;12.56;47.23;100750.41;104768;1274;60502;-72
2022/04/27 07:32:52;;;;;;;6.50;1.40;;;;;;;13.03;46.41;100750.04;104823;1273;74867;-74
2022/04/27 07:35:41;;;;;;;7.10;1.60;;;;;;;13.50;46.00;100755.48;104704;1273;68532;-72
2022/04/27 07:38:28;;;;;;;6.00;1.20;;;;;;;14.30;44.21;100755.19;104744;1273;74139;-72
2022/04/27 07:41:17;;;;;;;20.00;9.30;;;;;;;14.72;43.42;100757.60;104812;1273;59770;-73
2022/04/27 07:44:06;;;;;;;6.20;1.70;;;;;;;15.09;42.07;100754.16;104702;1273;60534;-73
2022/04/27 07:46:54;;;;;;;6.10;1.40;;;;;;;15.79;40.46;100756.28;104807;1273;73742;-71
2022/04/27 07:49:44;;;;;;;5.90;1.30;;;;;;;15.79;39.57;100759.21;105026;1273;67641;-72
2022/04/27 07:52:32;;;;;;;5.40;1.10;;;;;;;15.87;39.60;100761.87;104774;1273;72433;-72
2022/04/27 07:55:20;;;;;;;5.00;1.10;;;;;;;16.53;38.00;100763.95;104842;1273;59778;-73
2022/04/27 07:58:08;;;;;;;6.00;1.00;;;;;;;16.83;36.83;100768.95;104790;1273;60591;-74
2022/04/27 08:00:57;;;;;;;9.40;1.40;;;;;;;17.19;36.10;100761.17;104895;1273;74697;-72
2022/04/27 08:03:45;;;;;;;6.70;1.10;;;;;;;17.23;35.22;100764.29;104764;1274;68685;-73
2022/04/27 08:06:33;;;;;;;5.00;1.20;;;;;;;16.90;34.85;100776.77;104758;1273;72948;-72
2022/04/27 08:09:21;;;;;;;6.80;1.20;;;;;;;16.51;34.90;100776.73;104848;1273;60029;-74
2022/04/27 08:12:09;;;;;;;5.60;1.20;;;;;;;15.91;35.79;100779.05;104806;1273;60491;-73
2022/04/27 08:14:57;;;;;;;7.10;2.10;;;;;;;15.51;36.62;100783.57;104753;1274;74725;-73
2022/04/27 08:18:00;;;;;;;13.30;4.00;;;;;;;15.39;36.70;100785.58;104768;1273;68630;-73
2022/04/27 08:21:14;;;;;;;14.80;4.60;;;;;;;15.41;36.75;100785.89;105029;1273;73447;-72
2022/04/27 08:24:11;;;;;;;10.70;2.10;;;;;;;15.40;36.64;100785.42;104939;1273;59562;-73
2022/04/27 08:26:58;;;;;;;11.30;2.40;;;;;;;15.12;37.38;100788.00;104750;1273;62058;-71
2022/04/27 08:29:46;;;;;;;10.90;2.00;;;;;;;14.95;38.28;100792.61;104973;1273;74054;-73
2022/04/27 08:32:34;;;;;;;10.70;2.30;;;;;;;14.80;38.41;100793.55;104791;1273;66974;-75
2022/04/27 08:35:22;;;;;;;10.90;2.00;;;;;;;14.77;38.06;100788.64;104701;1273;73370;-71
2022/04/27 08:38:14;;;;;;;8.50;1.40;;;;;;;14.73;38.10;100788.77;104996;1273;59679;-73
2022/04/27 08:41:02;;;;;;;10.70;2.00;;;;;;;14.78;38.07;100792.66;104793;1273;59726;-75
2022/04/27 08:43:50;;;;;;;6.90;1.40;;;;;;;14.79;38.10;100795.02;104702;1273;75092;-73
2022/04/27 08:46:41;;;;;;;6.70;1.30;;;;;;;14.88;38.20;100797.40;104917;1273;68730;-74
2022/04/27 08:49:34;;;;;;;8.20;1.30;;;;;;;15.04;37.85;100801.22;104544;1274;73238;-71
2022/04/27 08:52:23;;;;;;;7.80;1.60;;;;;;;15.12;37.66;100805.16;104851;1273;59753;-73
2022/04/27 08:55:11;;;;;;;5.00;1.10;;;;;;;15.02;37.28;100804.73;104949;1273;61025;-73
2022/04/27 08:58:11;;;;;;;5.60;1.20;;;;;;;14.77;37.14;100809.20;104824;1273;74850;-73
2022/04/27 09:01:19;;;;;;;6.00;1.20;;;;;;;14.95;36.81;100814.64;104802;1273;67474;-73
2022/04/27 09:04:16;;;;;;;7.80;1.30;;;;;;;15.35;35.68;100815.53;104831;1273;74378;-73
2022/04/27 09:07:17;;;;;;;5.60;1.10;;;;;;;15.96;33.25;100815.08;104756;1273;317188;-72
2022/04/27 09:10:08;;;;;;;6.10;1.40;;;;;;;16.61;32.58;100821.55;105024;1273;59624;-74
2022/04/27 09:12:57;;;;;;;5.30;1.00;;;;;;;17.37;31.29;100818.77;104468;1274;72588;-73
2022/04/27 09:16:00;;;;;;;9.30;1.80;;;;;;;18.43;29.39;100818.66;104733;1273;69765;-73
2022/04/27 09:22:06;;;;;;;7.10;1.10;;;;;;;19.53;26.56;100813.38;105110;1273;59762;-73
2022/04/27 09:24:58;;;;;;;7.10;1.60;;;;;;;19.12;25.79;100820.25;104829;1273;59634;-72
2022/04/27 09:27:45;;;;;;;6.60;1.40;;;;;;;18.59;26.53;100822.89;105046;1273;73668;-70
2022/04/27 09:30:34;;;;;;;7.00;1.60;;;;;;;18.47;26.86;100826.89;104729;1274;70013;-73
2022/04/27 09:33:39;;;;;;;7.30;1.30;;;;;;;18.92;26.77;100829.98;104795;1273;74000;-73
2022/04/27 09:36:28;;;;;;;7.40;1.10;;;;;;;19.73;25.96;100826.77;104755;1273;59919;-73
2022/04/27 09:39:24;;;;;;;5.10;1.30;;;;;;;20.02;25.13;100825.02;104730;1273;61071;-71
2022/04/27 09:42:14;;;;;;;5.20;1.10;;;;;;;20.61;24.33;100829.52;105002;1273;72240;-72
2022/04/27 09:45:23;;;;;;;5.70;1.10;;;;;;;20.98;23.34;100829.58;104937;1273;67629;-73
2022/04/27 09:48:19;;;;;;;5.00;1.00;;;;;;;21.51;22.83;100833.05;104645;1273;73576;-73
2022/04/27 09:51:15;;;;;;;6.40;1.10;;;;;;;22.15;21.51;100827.33;104609;1276;59886;-73
2022/04/27 09:54:04;;;;;;;6.10;1.30;;;;;;;22.70;20.63;100822.97;104777;1273;60885;-72
2022/04/27 09:56:55;;;;;;;6.10;1.10;;;;;;;22.98;20.11;100821.73;104760;1273;74663;-73
2022/04/27 09:59:44;;;;;;;4.70;1.30;;;;;;;23.28;20.07;100822.45;104660;1273;68239;-71
2022/04/27 10:02:34;;;;;;;6.30;1.10;;;;;;;23.62;18.57;100821.70;104395;1274;72293;-74
2022/04/27 10:05:22;;;;;;;5.20;1.20;;;;;;;23.86;17.66;100821.16;104960;1273;60001;-74
2022/04/27 10:08:11;;;;;;;6.20;1.00;;;;;;;23.95;17.49;100818.27;104696;1273;60569;-74
2022/04/27 10:10:59;;;;;;;7.30;1.30;;;;;;;24.03;17.83;100823.00;104708;1276;75124;-72
2022/04/27 10:13:51;;;;;;;7.20;1.30;;;;;;;24.13;17.84;100826.16;105409;1275;68410;-70
2022/04/27 10:16:39;;;;;;;7.50;1.50;;;;;;;24.00;17.96;100831.05;107170;1273;73377;-71
2022/04/27 10:19:27;;;;;;;5.80;1.00;;;;;;;23.89;17.25;100830.12;106896;1273;59673;-73
2022/04/27 10:22:44;;;;;;;6.00;1.40;;;;;;;23.78;17.08;100824.08;107119;1273;59411;-72
2022/04/27 10:25:32;;;;;;;6.30;1.00;;;;;;;23.75;17.28;100822.09;105580;1281;73725;-72
2022/04/27 10:28:22;;;;;;;6.00;1.10;;;;;;;23.78;17.07;100821.91;104227;1280;69595;-71
2022/04/27 10:31:10;;;;;;;5.50;0.80;;;;;;;23.79;16.54;100820.45;104188;1282;73933;-72
2022/04/27 10:33:58;;;;;;;6.10;1.40;;;;;;;23.68;16.21;100817.52;104158;1281;59839;-71
2022/04/27 10:36:54;;;;;;;5.50;1.40;;;;;;;23.67;16.35;100825.02;104108;1281;60576;-71
2022/04/27 10:39:45;;;;;;;7.40;1.30;;;;;;;23.71;16.32;100828.71;104230;1281;72660;-73
2022/04/27 10:42:34;;;;;;;4.70;0.90;;;;;;;23.83;16.13;100827.66;104191;1281;69630;-72
2022/04/27 10:45:27;;;;;;;6.40;1.10;;;;;;;23.71;16.04;100833.85;104084;1281;73840;-71
2022/04/27 10:48:24;;;;;;;7.20;1.00;;;;;;;23.85;16.29;100838.04;104199;1281;59694;-71
2022/04/27 10:51:12;;;;;;;6.70;1.30;;;;;;;24.06;15.95;100828.59;104433;1281;59650;-72
2022/04/27 10:54:04;;;;;;;6.30;1.50;;;;;;;24.08;15.77;100823.34;104143;1281;72598;-72
2022/04/27 10:57:15;;;;;;;8.90;1.70;;;;;;;24.04;15.94;100823.66;104397;1281;69608;-71
2022/04/27 11:00:07;;;;;;;9.10;1.50;;;;;;;24.02;16.16;100824.46;104384;1281;73978;-74
2022/04/27 11:03:18;;;;;;;5.30;0.90;;;;;;;23.89;16.62;100824.05;104977;1275;59798;-75
2022/04/27 11:06:10;;;;;;;5.50;1.00;;;;;;;23.89;16.88;100825.09;104984;1273;60916;-73
2022/04/27 11:09:08;;;;;;;7.70;1.10;;;;;;;23.66;17.53;100825.17;104682;1274;73975;-72
2022/04/27 11:11:56;;;;;;;7.20;1.30;;;;;;;23.23;17.72;100821.80;105026;1274;69157;-72
2022/04/27 11:14:46;;;;;;;5.10;1.10;;;;;;;22.95;18.08;100813.65;104861;1274;73467;-74
2022/04/27 11:17:40;;;;;;;8.30;1.50;;;;;;;23.03;18.13;100814.05;104670;1275;59679;-72
2022/04/27 11:20:39;;;;;;;7.80;1.60;;;;;;;22.70;18.45;100817.61;104701;1274;60534;-72
2022/04/27 11:23:30;;;;;;;7.80;1.30;;;;;;;22.28;19.33;100820.20;105034;1274;72273;-73
2022/04/27 11:26:18;;;;;;;8.90;1.50;;;;;;;21.92;19.28;100821.98;105028;1274;68543;-76
2022/04/27 11:29:06;;;;;;;8.60;1.50;;;;;;;21.83;19.25;100816.87;104755;1275;74479;-71
2022/04/27 11:31:56;;;;;;;8.60;2.20;;;;;;;21.72;19.37;100810.80;104911;1273;59692;-73
2022/04/27 11:34:49;;;;;;;12.00;2.40;;;;;;;21.65;19.60;100817.98;104848;1274;60997;-72
2022/04/27 11:37:38;;;;;;;8.90;1.90;;;;;;;21.52;19.06;100818.84;104663;1276;74329;-71
2022/04/27 11:40:27;;;;;;;6.50;1.20;;;;;;;21.16;19.48;100823.27;105064;1274;68644;-72
2022/04/27 11:43:27;;;;;;;4.90;1.10;;;;;;;20.57;19.98;100820.71;104733;1274;73402;-72
2022/04/27 11:46:16;;;;;;;7.00;1.30;;;;;;;20.08;20.51;100828.56;104840;1274;59668;-72
2022/04/27 11:49:11;;;;;;;6.50;1.50;;;;;;;19.86;20.88;100829.95;105121;1274;60508;-72
2022/04/27 11:51:59;;;;;;;9.50;1.20;;;;;;;19.67;21.27;100832.02;104762;1274;73345;-74
2022/04/27 11:54:47;;;;;;;6.10;1.10;;;;;;;19.19;21.67;100835.31;104634;1275;67837;-73
2022/04/27 11:57:35;;;;;;;7.00;1.20;;;;;;;18.59;22.12;100832.36;104974;1274;72592;-76
2022/04/27 12:00:29;;;;;;;6.80;1.40;;;;;;;17.95;22.56;100834.83;104969;1274;59656;-75
2022/04/27 12:03:18;;;;;;;7.60;1.60;;;;;;;17.39;23.33;100840.69;104920;1275;60476;-73
2022/04/27 12:06:07;;;;;;;7.10;1.50;;;;;;;16.97;23.53;100839.58;104685;1274;74824;-73
2022/04/27 12:09:02;;;;;;;7.50;1.40;;;;;;;16.49;24.59;100845.34;104803;1275;68645;-72
2022/04/27 12:11:50;;;;;;;7.00;1.00;;;;;;;16.04;25.92;100838.98;104722;1274;73752;-72
2022/04/27 12:14:41;;;;;;;6.00;1.30;;;;;;;15.68;26.72;100848.47;104894;1274;59775;-73
2022/04/27 12:17:50;;;;;;;5.90;1.10;;;;;;;15.22;27.27;100851.85;104820;1273;60238;-76
2022/04/27 12:20:42;;;;;;;4.90;1.10;;;;;;;14.81;26.64;100847.83;105060;1273;74363;-72
2022/04/27 12:23:38;;;;;;;6.30;1.30;;;;;;;14.37;26.19;100848.30;104821;1274;68390;-73
2022/04/27 12:26:38;;;;;;;6.60;1.50;;;;;;;14.15;26.55;100848.98;104817;1275;72301;-73
2022/04/27 12:29:30;;;;;;;7.70;1.60;;;;;;;14.01;27.47;100849.77;104862;1274;59869;-73
2022/04/27 12:32:19;;;;;;;5.70;1.10;;;;;;;13.98;28.02;100850.17;104914;1274;59428;-72
2022/04/27 12:38:16;;;;;;;5.80;1.20;;;;;;;13.55;28.59;100857.83;105329;1273;69630;-74
2022/04/27 12:41:04;;;;;;;4.20;1.10;;;;;;;13.36;28.94;100862.98;105455;1274;72684;-73
2022/04/27 12:43:54;;;;;;;6.50;1.50;;;;;;;13.21;27.29;100858.96;105738;1273;59759;-72
2022/04/27 12:47:11;;;;;;;5.90;1.30;;;;;;;13.04;27.30;100860.42;104839;1274;1003127;-74
2022/04/27 12:50:00;;;;;;;6.20;1.10;;;;;;;12.85;28.01;100862.19;105890;1274;72208;-71
2022/04/27 12:52:49;;;;;;;5.10;1.00;;;;;;;12.74;28.91;100863.70;105668;1275;67925;-71
2022/04/27 12:55:38;;;;;;;6.20;1.10;;;;;;;12.68;29.61;100862.38;105745;1274;73914;-74
2022/04/27 12:58:26;;;;;;;4.50;1.00;;;;;;;12.51;29.03;100862.57;105221;1274;59684;-72
2022/04/27 13:01:28;;;;;;;5.20;0.90;;;;;;;12.44;29.53;100859.49;104750;1274;60172;-72
2022/04/27 13:04:16;;;;;;;5.30;1.10;;;;;;;12.30;29.48;100857.36;104930;1274;73601;-76
2022/04/27 13:07:05;;;;;;;4.70;1.00;;;;;;;12.15;31.00;100858.21;104927;1274;69466;-74
2022/04/27 13:13:01;;;;;;;5.20;1.00;;;;;;;12.02;29.83;100861.25;104825;1274;59966;-73
2022/04/27 13:15:50;;;;;;;5.50;1.20;;;;;;;11.89;30.00;100863.02;104743;1274;59542;-74
2022/04/27 13:18:38;;;;;;;6.40;1.20;;;;;;;11.73;30.88;100863.96;104659;1274;74794;-75
2022/04/27 13:21:26;;;;;;;5.70;1.20;;;;;;;11.63;32.39;100861.63;107154;1274;68978;-73
2022/04/27 13:24:16;;;;;;;6.10;1.10;;;;;;;11.38;33.36;100864.79;106854;1273;73364;-76
2022/04/27 13:27:25;;;;;;;4.90;1.10;;;;;;;11.28;33.61;100861.76;105323;1274;59688;-74
2022/04/27 13:30:13;;;;;;;5.50;1.40;;;;;;;11.39;32.57;100861.66;105080;1274;59574;-73
2022/04/27 13:33:02;;;;;;;5.20;1.20;;;;;;;11.41;31.68;100855.33;105067;1273;74293;-77